Time;durP1;ratioP1;P1;durP2;ratioP2;P2;SDS_P1;SDS_P2;PMS_P1;PMS_P2;Temp;Humidity;BMP_temperature;BMP_pressure;BME280_temperature;BME280_humidity;BME280_pressure;Samples;Min_cycle;Max_cycle;Signal;HPM_P1;HPM_P2
2023/01/09 00:00:52;;;;;;;8.90;7.35;;;;;;;;;;5022201;28;20050;-80
2023/01/09 00:03:20;;;;;;;11.13;8.07;;;;;;;;;;5021693;28;20061;-80
2023/01/09 00:05:47;;;;;;;10.48;7.53;;;;;;;;;;5040935;28;20057;-80
2023/01/09 00:08:15;;;;;;;11.18;7.95;;;;;;;;;;5033467;28;20072;-80
2023/01/09 00:10:42;;;;;;;12.90;8.60;;;;;;;;;;5026246;28;20120;-80
2023/01/09 00:13:13;;;;;;;11.38;8.25;;;;;;;;;;5053721;28;20042;-80
2023/01/09 00:15:40;;;;;;;10.20;7.65;;;;;;;;;;5029603;28;20060;-80
2023/01/09 00:18:08;;;;;;;10.90;7.82;;;;;;;;;;5022214;28;20064;-81
2023/01/09 00:20:35;;;;;;;9.25;6.72;;;;;;;;;;5033731;28;20111;-81
2023/01/09 00:23:03;;;;;;;11.60;8.10;;;;;;;;;;5029539;28;20045;-81
2023/01/09 00:25:31;;;;;;;10.80;7.72;;;;;;;;;;5045040;28;20051;-81
2023/01/09 00:27:58;;;;;;;12.43;7.85;;;;;;;;;;5038600;28;20065;-81
2023/01/09 00:30:26;;;;;;;12.93;7.93;;;;;;;;;;5029354;28;20096;-81
2023/01/09 00:32:54;;;;;;;10.35;7.32;;;;;;;;;;5030741;28;20072;-81
2023/01/09 00:35:23;;;;;;;8.30;6.75;;;;;;;;;;5027145;28;20562;-81
2023/01/09 00:37:50;;;;;;;8.90;6.43;;;;;;;;;;5024461;28;20732;-81
2023/01/09 00:40:18;;;;;;;9.95;7.63;;;;;;;;;;5033993;28;20045;-80
2023/01/09 00:42:47;;;;;;;9.30;7.25;;;;;;;;;;5032644;28;20045;-81
2023/01/09 00:45:16;;;;;;;11.57;7.60;;;;;;;;;;5028588;28;20053;-80
2023/01/09 00:47:50;;;;;;;10.52;6.93;;;;;;;;;;5034691;28;20120;-81
2023/01/09 00:50:22;;;;;;;10.25;7.45;;;;;;;;;;5030616;28;20057;-81
2023/01/09 00:52:51;;;;;;;9.15;6.75;;;;;;;;;;5026592;28;20069;-81
2023/01/09 00:55:18;;;;;;;8.18;6.68;;;;;;;;;;5022565;28;20109;-79
2023/01/09 00:57:46;;;;;;;8.35;6.68;;;;;;;;;;5039673;28;20049;-81
2023/01/09 01:00:13;;;;;;;8.50;7.15;;;;;;;;;;5031205;28;20440;-80
2023/01/09 01:02:41;;;;;;;7.65;6.10;;;;;;;;;;5025297;28;20132;-80
2023/01/09 01:08:02;;;;;;;9.68;7.20;;;;;;;;;;5014697;28;20067;-81
2023/01/09 01:10:29;;;;;;;6.88;6.13;;;;;;;;;;5039739;28;20052;-81
2023/01/09 01:12:57;;;;;;;8.95;7.25;;;;;;;;;;5039630;28;20423;-81
2023/01/09 01:15:28;;;;;;;8.70;6.85;;;;;;;;;;5032797;28;20047;-81
2023/01/09 01:17:55;;;;;;;9.60;6.97;;;;;;;;;;5028773;28;20420;-80
2023/01/09 01:20:22;;;;;;;10.00;7.03;;;;;;;;;;5023232;28;20110;-80
2023/01/09 01:22:50;;;;;;;8.88;6.72;;;;;;;;;;5025865;28;20073;-80
2023/01/09 01:25:17;;;;;;;9.00;6.57;;;;;;;;;;5025814;28;20048;-80
2023/01/09 01:27:45;;;;;;;8.75;6.88;;;;;;;;;;5033810;28;20133;-81
2023/01/09 01:30:13;;;;;;;9.88;7.10;;;;;;;;;;5021802;28;20041;-80
2023/01/09 01:32:41;;;;;;;10.18;7.20;;;;;;;;;;5022462;28;20750;-80
2023/01/09 01:35:08;;;;;;;11.32;6.75;;;;;;;;;;5018436;28;20411;-80
2023/01/09 01:37:36;;;;;;;9.50;7.30;;;;;;;;;;5029414;28;20045;-80
2023/01/09 01:40:05;;;;;;;9.10;6.25;;;;;;;;;;5039270;28;20048;-80
2023/01/09 01:42:32;;;;;;;8.55;6.55;;;;;;;;;;5023134;28;20076;-80
2023/01/09 01:45:00;;;;;;;8.02;6.82;;;;;;;;;;5027441;28;20115;-80
2023/01/09 01:47:33;;;;;;;8.10;6.00;;;;;;;;;;5031881;28;20056;-80
2023/01/09 01:50:03;;;;;;;10.35;8.43;;;;;;;;;;5044180;28;20057;-81
2023/01/09 01:52:32;;;;;;;10.52;7.40;;;;;;;;;;5032446;28;20045;-80
2023/01/09 01:54:59;;;;;;;7.97;6.95;;;;;;;;;;5030019;28;20501;-80
2023/01/09 01:57:26;;;;;;;9.45;7.28;;;;;;;;;;5032868;28;20144;-80
2023/01/09 01:59:57;;;;;;;9.00;7.40;;;;;;;;;;5036523;28;20046;-80
2023/01/09 02:02:28;;;;;;;9.73;6.90;;;;;;;;;;5026726;28;20041;-80
2023/01/09 02:04:56;;;;;;;11.67;8.23;;;;;;;;;;5022005;28;20591;-81
2023/01/09 02:07:23;;;;;;;10.32;7.28;;;;;;;;;;5037417;28;20517;-81
2023/01/09 02:09:51;;;;;;;8.40;6.30;;;;;;;;;;5027253;28;20535;-80
2023/01/09 02:12:24;;;;;;;8.60;6.60;;;;;;;;;;5016606;28;20049;-80
2023/01/09 02:15:04;;;;;;;10.68;7.28;;;;;;;;;;5017409;28;20054;-81
2023/01/09 02:17:59;;;;;;;8.50;7.00;;;;;;;;;;5025936;28;20133;-80
2023/01/09 02:20:29;;;;;;;8.55;6.85;;;;;;;;;;5036218;28;20057;-80
2023/01/09 02:23:16;;;;;;;8.40;6.20;;;;;;;;;;5037688;28;20072;-80
2023/01/09 02:26:02;;;;;;;10.15;7.28;;;;;;;;;;5032774;28;20045;-80
2023/01/09 02:28:29;;;;;;;8.73;6.88;;;;;;;;;;5025088;28;20046;-80
2023/01/09 02:31:21;;;;;;;8.80;6.55;;;;;;;;;;5024866;28;20049;-80
2023/01/09 02:33:58;;;;;;;7.65;6.03;;;;;;;;;;5026396;28;20046;-80
2023/01/09 02:36:25;;;;;;;9.95;6.72;;;;;;;;;;5034016;28;20075;-80
2023/01/09 02:39:05;;;;;;;9.45;7.32;;;;;;;;;;5018793;28;20137;-80
2023/01/09 02:41:43;;;;;;;8.27;6.53;;;;;;;;;;5037157;28;20115;-80
2023/01/09 02:44:21;;;;;;;8.32;6.93;;;;;;;;;;5035699;28;20046;-80
2023/01/09 02:46:59;;;;;;;12.15;9.32;;;;;;;;;;5035741;28;20427;-80
2023/01/09 02:49:27;;;;;;;13.73;9.15;;;;;;;;;;5037397;28;20065;-80
2023/01/09 02:52:01;;;;;;;15.30;10.00;;;;;;;;;;5027773;28;20105;-80
2023/01/09 02:54:37;;;;;;;18.70;9.75;;;;;;;;;;5034137;28;20069;-80
2023/01/09 02:57:18;;;;;;;16.42;10.32;;;;;;;;;;5027548;28;20124;-80
2023/01/09 02:59:55;;;;;;;18.27;11.00;;;;;;;;;;5041106;28;20471;-80
2023/01/09 03:02:43;;;;;;;16.08;10.55;;;;;;;;;;5039403;28;20714;-80
2023/01/09 03:05:11;;;;;;;17.67;11.75;;;;;;;;;;5042942;28;20053;-80
2023/01/09 03:07:43;;;;;;;18.80;12.07;;;;;;;;;;5022852;28;20808;-80
2023/01/09 03:10:17;;;;;;;21.98;12.43;;;;;;;;;;5023708;28;20554;-80
2023/01/09 03:12:47;;;;;;;21.33;12.00;;;;;;;;;;5033861;28;20041;-80
2023/01/09 03:15:14;;;;;;;19.88;13.65;;;;;;;;;;5036883;28;20038;-80
2023/01/09 03:17:45;;;;;;;19.48;13.07;;;;;;;;;;5026328;28;20063;-80
2023/01/09 03:20:14;;;;;;;16.70;11.10;;;;;;;;;;5019603;28;20049;-80
2023/01/09 03:23:01;;;;;;;19.73;12.30;;;;;;;;;;5024143;28;20128;-80
2023/01/09 03:25:29;;;;;;;15.10;11.15;;;;;;;;;;5038229;28;20113;-80
2023/01/09 03:28:01;;;;;;;15.63;11.43;;;;;;;;;;5033022;28;20104;-80
2023/01/09 03:30:28;;;;;;;17.48;11.20;;;;;;;;;;5034533;28;20099;-80
2023/01/09 03:32:56;;;;;;;16.83;12.02;;;;;;;;;;5026270;28;20507;-80
2023/01/09 03:35:24;;;;;;;16.63;10.82;;;;;;;;;;5024382;28;20041;-81
2023/01/09 03:37:51;;;;;;;19.00;12.27;;;;;;;;;;5022126;28;20099;-80
2023/01/09 03:40:19;;;;;;;17.10;11.45;;;;;;;;;;5036356;28;20415;-80
2023/01/09 03:42:47;;;;;;;18.70;12.20;;;;;;;;;;5025162;28;20500;-80
2023/01/09 03:45:14;;;;;;;22.08;12.00;;;;;;;;;;5020606;28;20073;-80
2023/01/09 03:47:42;;;;;;;23.52;12.73;;;;;;;;;;5033440;28;20052;-80
2023/01/09 03:50:10;;;;;;;15.18;11.43;;;;;;;;;;5022736;28;20072;-80
2023/01/09 03:52:37;;;;;;;16.02;10.38;;;;;;;;;;5039033;28;20133;-80
2023/01/09 03:55:05;;;;;;;18.45;12.02;;;;;;;;;;5021841;28;20151;-80
2023/01/09 03:57:32;;;;;;;18.15;11.52;;;;;;;;;;5039031;28;20087;-80
2023/01/09 03:59:59;;;;;;;18.58;12.07;;;;;;;;;;5031557;28;20056;-80
2023/01/09 04:02:27;;;;;;;16.30;10.43;;;;;;;;;;5031853;28;20529;-80
2023/01/09 04:04:54;;;;;;;16.75;12.18;;;;;;;;;;5026573;28;20486;-80
2023/01/09 04:07:22;;;;;;;19.05;12.30;;;;;;;;;;5020823;28;20084;-80
2023/01/09 04:09:50;;;;;;;19.02;11.93;;;;;;;;;;5038632;28;20127;-80
2023/01/09 04:12:17;;;;;;;17.70;11.70;;;;;;;;;;5044917;28;20040;-80
2023/01/09 04:14:44;;;;;;;18.88;12.10;;;;;;;;;;5026515;28;20057;-83
2023/01/09 04:17:12;;;;;;;18.73;12.30;;;;;;;;;;5043221;28;20041;-80
2023/01/09 04:19:39;;;;;;;19.92;12.27;;;;;;;;;;5045938;28;20048;-80
2023/01/09 04:22:07;;;;;;;19.77;13.40;;;;;;;;;;5048348;28;20057;-80
2023/01/09 04:24:34;;;;;;;20.65;12.60;;;;;;;;;;5033131;28;20046;-80
2023/01/09 04:27:01;;;;;;;19.85;13.45;;;;;;;;;;5031609;28;20057;-80
2023/01/09 04:29:29;;;;;;;18.85;12.35;;;;;;;;;;5024158;28;20047;-80
2023/01/09 04:31:56;;;;;;;16.52;11.32;;;;;;;;;;5030677;28;20041;-80
2023/01/09 04:34:24;;;;;;;18.27;11.52;;;;;;;;;;5031485;28;20132;-80
2023/01/09 04:36:52;;;;;;;19.88;12.60;;;;;;;;;;5055427;28;20045;-80
2023/01/09 04:39:20;;;;;;;18.55;11.60;;;;;;;;;;5046433;28;20049;-80
2023/01/09 04:41:47;;;;;;;18.85;12.05;;;;;;;;;;5022276;28;20070;-80
2023/01/09 04:44:27;;;;;;;19.77;11.95;;;;;;;;;;5028308;28;20042;-80
2023/01/09 04:46:55;;;;;;;22.08;13.70;;;;;;;;;;5053836;28;20041;-80
2023/01/09 04:49:23;;;;;;;15.48;9.68;;;;;;;;;;5021082;28;20054;-80
2023/01/09 04:51:50;;;;;;;15.75;11.48;;;;;;;;;;5024898;28;20465;-80
2023/01/09 04:54:18;;;;;;;14.63;10.95;;;;;;;;;;5030426;28;20037;-80
2023/01/09 04:56:46;;;;;;;17.42;11.45;;;;;;;;;;5035994;28;20064;-80
2023/01/09 04:59:13;;;;;;;19.15;12.63;;;;;;;;;;5043696;28;20112;-80
2023/01/09 05:01:41;;;;;;;16.30;11.82;;;;;;;;;;5038121;28;20056;-80
2023/01/09 05:04:08;;;;;;;17.88;11.93;;;;;;;;;;5052717;28;20080;-80
2023/01/09 05:06:36;;;;;;;17.85;12.20;;;;;;;;;;5038819;28;20037;-80
2023/01/09 05:09:03;;;;;;;18.67;12.38;;;;;;;;;;5020390;28;20048;-80
2023/01/09 05:11:30;;;;;;;21.27;13.15;;;;;;;;;;5030424;28;20041;-80
2023/01/09 05:13:58;;;;;;;19.33;12.85;;;;;;;;;;5031837;28;20072;-80
2023/01/09 05:16:25;;;;;;;18.13;12.93;;;;;;;;;;5027555;28;20132;-80
2023/01/09 05:18:55;;;;;;;14.25;10.75;;;;;;;;;;5021551;28;20745;-80
2023/01/09 05:21:23;;;;;;;18.35;13.00;;;;;;;;;;5024212;28;20060;-80
2023/01/09 05:23:51;;;;;;;16.35;12.07;;;;;;;;;;5034029;28;20053;-80
2023/01/09 05:26:22;;;;;;;16.77;11.95;;;;;;;;;;5025044;28;20136;-80
2023/01/09 05:28:50;;;;;;;18.92;12.63;;;;;;;;;;5039159;28;20049;-80
2023/01/09 05:31:18;;;;;;;17.05;11.77;;;;;;;;;;5025524;28;20101;-80
2023/01/09 05:33:46;;;;;;;20.30;12.35;;;;;;;;;;5023124;28;20060;-80
2023/01/09 05:36:14;;;;;;;19.77;12.35;;;;;;;;;;5016986;28;20049;-80
2023/01/09 05:38:42;;;;;;;20.15;13.40;;;;;;;;;;5021163;28;20041;-80
2023/01/09 05:41:09;;;;;;;18.63;12.90;;;;;;;;;;5025527;28;20037;-80
2023/01/09 05:43:36;;;;;;;20.38;13.50;;;;;;;;;;5016864;28;20068;-80
2023/01/09 05:46:04;;;;;;;20.50;13.55;;;;;;;;;;5035166;28;20143;-80
2023/01/09 05:48:31;;;;;;;23.65;15.32;;;;;;;;;;5026920;28;20045;-80
2023/01/09 05:50:59;;;;;;;23.85;14.75;;;;;;;;;;5029356;28;20052;-80
2023/01/09 05:53:26;;;;;;;18.25;13.48;;;;;;;;;;5025353;28;20069;-80
2023/01/09 05:55:53;;;;;;;19.45;13.50;;;;;;;;;;5039206;28;20049;-80
2023/01/09 05:58:21;;;;;;;23.08;13.57;;;;;;;;;;5033391;28;20053;-80
2023/01/09 06:00:48;;;;;;;21.65;13.82;;;;;;;;;;5030253;28;20172;-80
2023/01/09 06:03:16;;;;;;;20.92;13.80;;;;;;;;;;5028557;28;20049;-80
2023/01/09 06:05:43;;;;;;;20.83;15.07;;;;;;;;;;5023315;28;20226;-81
2023/01/09 06:08:11;;;;;;;20.80;14.32;;;;;;;;;;5018568;28;20045;-80
2023/01/09 06:10:38;;;;;;;20.90;13.85;;;;;;;;;;5018698;28;20045;-80
2023/01/09 06:13:06;;;;;;;22.23;13.68;;;;;;;;;;5021208;28;20038;-80
2023/01/09 06:15:33;;;;;;;22.10;13.82;;;;;;;;;;5014477;28;20042;-80
2023/01/09 06:18:00;;;;;;;24.00;14.75;;;;;;;;;;5022128;28;20508;-80
2023/01/09 06:20:28;;;;;;;23.45;16.27;;;;;;;;;;5028588;28;20666;-80
2023/01/09 06:22:55;;;;;;;19.60;13.30;;;;;;;;;;5014893;28;20132;-80
2023/01/09 06:25:22;;;;;;;19.42;13.27;;;;;;;;;;5014909;28;20064;-80
2023/01/09 06:27:53;;;;;;;24.88;14.45;;;;;;;;;;5025893;28;20042;-80
2023/01/09 06:30:20;;;;;;;21.75;14.40;;;;;;;;;;5026028;28;20041;-80
2023/01/09 06:32:49;;;;;;;22.65;13.48;;;;;;;;;;5024929;28;20034;-80
2023/01/09 06:35:21;;;;;;;21.30;14.02;;;;;;;;;;5032916;28;20080;-80
2023/01/09 06:37:48;;;;;;;;;;;;;;;;;;5046503;28;20076;-80
2023/01/09 06:40:16;;;;;;;21.80;13.52;;;;;;;;;;5055262;28;19988;-80
2023/01/09 06:42:44;;;;;;;32.80;26.23;;;;;;;;;;5036666;28;20054;-80
2023/01/09 06:45:12;;;;;;;20.67;14.20;;;;;;;;;;5034268;28;20052;-80
2023/01/09 06:47:40;;;;;;;23.77;14.73;;;;;;;;;;5027193;28;20088;-80
2023/01/09 06:50:08;;;;;;;22.67;14.52;;;;;;;;;;5030229;28;20044;-80
2023/01/09 06:52:36;;;;;;;20.98;14.00;;;;;;;;;;5017849;28;20045;-80
2023/01/09 06:55:03;;;;;;;21.10;14.40;;;;;;;;;;5010470;28;20479;-80
2023/01/09 06:57:31;;;;;;;24.02;15.52;;;;;;;;;;5005178;28;20045;-80
2023/01/09 06:59:58;;;;;;;22.05;15.05;;;;;;;;;;5026380;28;20049;-80
2023/01/09 07:02:26;;;;;;;18.58;13.63;;;;;;;;;;5026154;28;20446;-80
2023/01/09 07:04:53;;;;;;;22.55;15.05;;;;;;;;;;5032944;28;20056;-80
2023/01/09 07:07:21;;;;;;;21.70;13.88;;;;;;;;;;5039309;28;20041;-80
2023/01/09 07:09:49;;;;;;;20.30;13.70;;;;;;;;;;5033157;28;20403;-80
2023/01/09 07:12:16;;;;;;;20.52;13.63;;;;;;;;;;5042135;28;20048;-80
2023/01/09 07:14:44;;;;;;;17.15;12.55;;;;;;;;;;5028876;28;20092;-80
2023/01/09 07:17:12;;;;;;;19.05;13.57;;;;;;;;;;5030045;28;20041;-80
2023/01/09 07:19:40;;;;;;;19.17;12.35;;;;;;;;;;5042561;28;20079;-80
2023/01/09 07:22:07;;;;;;;19.70;13.25;;;;;;;;;;5044308;28;20075;-79
2023/01/09 07:24:35;;;;;;;22.30;13.15;;;;;;;;;;5044485;28;20068;-80
2023/01/09 07:27:02;;;;;;;21.55;13.32;;;;;;;;;;5040759;28;20057;-80
2023/01/09 07:29:29;;;;;;;20.35;12.30;;;;;;;;;;5043148;28;20072;-80
2023/01/09 07:31:57;;;;;;;16.38;12.48;;;;;;;;;;5047121;28;20101;-80
2023/01/09 07:34:24;;;;;;;21.63;13.82;;;;;;;;;;5038051;28;20053;-80
2023/01/09 07:36:52;;;;;;;21.38;14.40;;;;;;;;;;5032967;28;20087;-80
2023/01/09 07:39:19;;;;;;;18.88;12.88;;;;;;;;;;5029527;28;20042;-80
2023/01/09 07:41:46;;;;;;;17.77;13.63;;;;;;;;;;5016310;28;20085;-79
2023/01/09 07:44:15;;;;;;;20.23;13.90;;;;;;;;;;5029422;28;20052;-80
2023/01/09 07:46:42;;;;;;;19.45;12.80;;;;;;;;;;5032470;28;20137;-81
2023/01/09 07:49:10;;;;;;;17.77;12.25;;;;;;;;;;5038654;28;20469;-80
2023/01/09 07:51:41;;;;;;;20.55;13.88;;;;;;;;;;5037704;28;20076;-80
2023/01/09 07:54:09;;;;;;;18.40;12.88;;;;;;;;;;5031428;28;20095;-80
2023/01/09 07:56:36;;;;;;;15.82;11.90;;;;;;;;;;5032910;28;20041;-80
2023/01/09 07:59:04;;;;;;;18.80;12.95;;;;;;;;;;5033315;28;20048;-80
2023/01/09 08:01:31;;;;;;;19.42;13.30;;;;;;;;;;5032842;28;20056;-80
2023/01/09 08:03:59;;;;;;;16.25;12.07;;;;;;;;;;5032863;28;20049;-80
2023/01/09 08:06:26;;;;;;;19.73;13.55;;;;;;;;;;5033886;28;20124;-80
2023/01/09 08:08:54;;;;;;;19.38;13.48;;;;;;;;;;5033775;28;20045;-80
2023/01/09 08:11:21;;;;;;;18.95;13.20;;;;;;;;;;5035939;28;20080;-81
2023/01/09 08:13:49;;;;;;;17.83;13.25;;;;;;;;;;5042410;28;20042;-81
2023/01/09 08:16:16;;;;;;;17.63;12.90;;;;;;;;;;5037483;28;20049;-81
2023/01/09 08:18:43;;;;;;;24.42;14.48;;;;;;;;;;5036804;28;20042;-82
2023/01/09 08:21:11;;;;;;;17.02;12.90;;;;;;;;;;5037215;28;20049;-82
2023/01/09 08:23:38;;;;;;;19.35;13.70;;;;;;;;;;5034021;28;20500;-81
2023/01/09 08:26:06;;;;;;;21.27;12.50;;;;;;;;;;5036088;28;20054;-82
2023/01/09 08:28:33;;;;;;;19.75;14.02;;;;;;;;;;5034503;28;20053;-81
2023/01/09 08:31:00;;;;;;;23.70;15.65;;;;;;;;;;5034147;28;20571;-81
2023/01/09 08:33:28;;;;;;;25.65;17.95;;;;;;;;;;5032131;28;20099;-83
2023/01/09 08:35:55;;;;;;;22.58;16.83;;;;;;;;;;5034214;28;20071;-82
2023/01/09 08:38:23;;;;;;;23.88;16.83;;;;;;;;;;5033195;28;20053;-81
2023/01/09 08:40:50;;;;;;;22.48;15.40;;;;;;;;;;5034068;28;20435;-81
2023/01/09 08:48:51;;;;;;;22.65;13.27;;;;;;;;;;5044591;28;20054;-83
2023/01/09 08:51:18;;;;;;;18.70;13.48;;;;;;;;;;5043783;28;20060;-82
2023/01/09 08:53:45;;;;;;;21.33;14.55;;;;;;;;;;5032395;28;20099;-81
2023/01/09 08:56:13;;;;;;;16.60;13.23;;;;;;;;;;5033715;28;20049;-82
2023/01/09 08:58:40;;;;;;;19.30;12.98;;;;;;;;;;5033784;28;20901;-81
2023/01/09 09:01:08;;;;;;;18.55;13.38;;;;;;;;;;5034194;28;20053;-82
2023/01/09 09:03:35;;;;;;;17.83;13.60;;;;;;;;;;5042671;28;20057;-82
2023/01/09 09:06:02;;;;;;;19.70;12.95;;;;;;;;;;5043957;28;20076;-82
2023/01/09 09:08:30;;;;;;;18.05;12.30;;;;;;;;;;5044276;28;20097;-82
2023/01/09 09:11:00;;;;;;;17.60;12.00;;;;;;;;;;5034009;28;20503;-81
2023/01/09 09:13:27;;;;;;;19.60;14.13;;;;;;;;;;5031717;28;20076;-81
2023/01/09 09:15:55;;;;;;;19.35;13.40;;;;;;;;;;5031495;28;20484;-81
2023/01/09 09:18:23;;;;;;;21.17;14.32;;;;;;;;;;5032492;28;20152;-81
2023/01/09 09:20:50;;;;;;;18.98;14.13;;;;;;;;;;5032118;28;20053;-82
2023/01/09 09:23:18;;;;;;;21.50;14.40;;;;;;;;;;5031910;28;20045;-80
2023/01/09 09:25:45;;;;;;;20.73;14.35;;;;;;;;;;5032966;28;20041;-81
2023/01/09 09:28:12;;;;;;;19.63;14.00;;;;;;;;;;5033225;28;20053;-81
2023/01/09 09:30:41;;;;;;;22.45;14.45;;;;;;;;;;5032855;28;20055;-81
2023/01/09 09:33:09;;;;;;;23.83;15.23;;;;;;;;;;5047411;28;20052;-81
2023/01/09 09:35:37;;;;;;;19.95;13.45;;;;;;;;;;5031470;28;20462;-81
2023/01/09 09:38:04;;;;;;;20.90;13.65;;;;;;;;;;5033244;28;20076;-81
2023/01/09 09:40:32;;;;;;;21.27;13.18;;;;;;;;;;5032692;28;20057;-80
2023/01/09 09:46:12;;;;;;;20.80;13.07;;;;;;;;;;5032138;28;20049;-81
2023/01/09 09:48:47;;;;;;;22.15;14.57;;;;;;;;;;5032760;28;20049;-80
2023/01/09 09:51:15;;;;;;;26.85;17.58;;;;;;;;;;5035275;28;20103;-81
2023/01/09 09:54:00;;;;;;;27.85;17.42;;;;;;;;;;5037771;28;20049;-81
2023/01/09 09:56:30;;;;;;;21.27;13.80;;;;;;;;;;5039920;28;20042;-81
2023/01/09 09:59:14;;;;;;;20.98;14.93;;;;;;;;;;5038065;28;20041;-81
2023/01/09 10:01:44;;;;;;;22.67;15.13;;;;;;;;;;5032900;28;20080;-81
2023/01/09 10:04:14;;;;;;;27.92;16.02;;;;;;;;;;5032104;28;20045;-81
2023/01/09 10:06:46;;;;;;;24.65;15.40;;;;;;;;;;5031997;28;20057;-83
2023/01/09 10:09:16;;;;;;;19.70;14.18;;;;;;;;;;5032289;28;20104;-81
2023/01/09 10:12:02;;;;;;;23.30;15.85;;;;;;;;;;5040930;28;20042;-81
2023/01/09 10:14:31;;;;;;;18.67;12.90;;;;;;;;;;5044303;28;20076;-81
2023/01/09 10:16:58;;;;;;;24.38;14.82;;;;;;;;;;5038102;28;20057;-82
2023/01/09 10:19:34;;;;;;;25.73;20.20;;;;;;;;;;5029684;28;20144;-81
2023/01/09 10:22:21;;;;;;;21.38;13.85;;;;;;;;;;5029003;28;20392;-82
2023/01/09 10:25:02;;;;;;;27.08;14.60;;;;;;;;;;5032662;28;20411;-82
2023/01/09 10:27:36;;;;;;;19.50;13.45;;;;;;;;;;5032512;28;20059;-81
2023/01/09 10:30:16;;;;;;;20.02;14.38;;;;;;;;;;5032943;28;20057;-81
2023/01/09 10:32:46;;;;;;;20.38;12.90;;;;;;;;;;5031212;28;20107;-81
2023/01/09 10:35:33;;;;;;;18.65;13.57;;;;;;;;;;5033750;28;20049;-81
2023/01/09 10:38:17;;;;;;;15.38;12.52;;;;;;;;;;5038276;28;20045;-80
2023/01/09 10:40:50;;;;;;;20.95;13.52;;;;;;;;;;5034268;28;20049;-80
2023/01/09 10:43:29;;;;;;;20.42;14.88;;;;;;;;;;5031040;28;20049;-81
2023/01/09 10:46:00;;;;;;;20.13;13.07;;;;;;;;;;5031733;28;20049;-81
2023/01/09 10:48:36;;;;;;;17.67;11.50;;;;;;;;;;5031045;28;20105;-81
2023/01/09 10:51:11;;;;;;;4.97;3.33;;;;;;;;;;5031557;28;20053;-81
2023/01/09 10:53:42;;;;;;;7.40;4.47;;;;;;;;;;5030380;28;20065;-81
2023/01/09 10:56:29;;;;;;;5.00;4.70;;;;;;;;;;5031205;28;20041;-81
2023/01/09 10:58:56;;;;;;;1.42;1.20;;;;;;;;;;5031694;28;20069;-81
2023/01/09 11:01:31;;;;;;;0.90;0.90;;;;;;;;;;5031820;28;20072;-81
2023/01/09 11:04:01;;;;;;;2.33;1.58;;;;;;;;;;5032250;28;20186;-81
2023/01/09 11:06:44;;;;;;;1.50;1.40;;;;;;;;;;5032006;28;20051;-81
2023/01/09 11:09:14;;;;;;;1.30;1.20;;;;;;;;;;5032522;28;20103;-81
2023/01/09 11:11:41;;;;;;;4.75;1.58;;;;;;;;;;5032908;28;20041;-81
2023/01/09 11:14:14;;;;;;;2.08;1.70;;;;;;;;;;5030963;28;20045;-81
2023/01/09 11:16:52;;;;;;;1.80;1.05;;;;;;;;;;5031295;28;20046;-81
2023/01/09 11:19:20;;;;;;;1.30;1.20;;;;;;;;;;5032434;28;20087;-81
2023/01/09 11:21:48;;;;;;;2.50;1.55;;;;;;;;;;5035483;28;20566;-81
2023/01/09 11:24:22;;;;;;;1.33;1.23;;;;;;;;;;5035110;28;20049;-81
2023/01/09 11:26:51;;;;;;;3.17;0.98;;;;;;;;;;5035953;28;20061;-81
2023/01/09 11:29:20;;;;;;;1.35;0.80;;;;;;;;;;5040083;28;20041;-81
2023/01/09 11:31:54;;;;;;;1.90;1.00;;;;;;;;;;5041146;28;20053;-81
2023/01/09 11:34:23;;;;;;;1.58;1.25;;;;;;;;;;5040950;28;20073;-81
2023/01/09 11:36:52;;;;;;;1.60;0.90;;;;;;;;;;5045422;28;20107;-80
2023/01/09 11:39:24;;;;;;;1.58;0.65;;;;;;;;;;5048850;28;20484;-80
2023/01/09 11:41:55;;;;;;;1.95;0.85;;;;;;;;;;5042755;28;20056;-81
2023/01/09 11:44:23;;;;;;;0.80;0.80;;;;;;;;;;5029748;28;20050;-81
2023/01/09 11:46:51;;;;;;;40.63;37.88;;;;;;;;;;5035262;28;20045;-81
2023/01/09 11:49:24;;;;;;;0.98;0.80;;;;;;;;;;5035422;28;20060;-80
2023/01/09 11:52:04;;;;;;;0.63;0.60;;;;;;;;;;5033590;28;20065;-80
2023/01/09 11:54:33;;;;;;;1.02;0.80;;;;;;;;;;5034202;28;20068;-80
2023/01/09 11:57:01;;;;;;;0.80;0.80;;;;;;;;;;5035321;28;20084;-80
2023/01/09 11:59:30;;;;;;;1.60;0.82;;;;;;;;;;5035796;28;20056;-81
2023/01/09 12:02:16;;;;;;;1.38;1.27;;;;;;;;;;5035897;28;20136;-81
2023/01/09 12:05:02;;;;;;;0.85;0.82;;;;;;;;;;5035420;28;20061;-80
2023/01/09 12:07:33;;;;;;;0.95;0.90;;;;;;;;;;5035781;28;20049;-81
2023/01/09 12:10:23;;;;;;;4.05;1.30;;;;;;;;;;5036401;28;20056;-81
2023/01/09 12:12:50;;;;;;;0.90;0.90;;;;;;;;;;5045279;28;20060;-80
2023/01/09 12:15:36;;;;;;;1.20;1.10;;;;;;;;;;5027820;28;20042;-80
2023/01/09 12:18:07;;;;;;;1.40;1.20;;;;;;;;;;5039775;28;20038;-80
2023/01/09 12:20:47;;;;;;;4.63;1.02;;;;;;;;;;5015555;28;20054;-80
2023/01/09 12:23:29;;;;;;;0.70;0.70;;;;;;;;;;5012838;28;20535;-80
2023/01/09 12:25:56;;;;;;;0.75;0.55;;;;;;;;;;5014893;28;20049;-79
2023/01/09 12:28:42;;;;;;;0.60;0.50;;;;;;;;;;5014398;28;20423;-80
2023/01/09 12:31:24;;;;;;;0.63;0.60;;;;;;;;;;5022270;28;20434;-80
2023/01/09 12:34:02;;;;;;;1.50;0.70;;;;;;;;;;5031178;28;20043;-80
2023/01/09 12:36:36;;;;;;;0.60;0.60;;;;;;;;;;5031208;28;20047;-79
2023/01/09 12:39:12;;;;;;;0.73;0.73;;;;;;;;;;5035076;28;20089;-80
2023/01/09 12:41:54;;;;;;;0.60;0.60;;;;;;;;;;5030469;28;20045;-80
2023/01/09 12:44:53;;;;;;;1.10;0.80;;;;;;;;;;5037716;28;20037;-80
2023/01/09 12:47:21;;;;;;;2.00;0.70;;;;;;;;;;5019536;28;20049;-79
2023/01/09 12:49:48;;;;;;;0.98;0.95;;;;;;;;;;5028583;28;20049;-80
2023/01/09 12:52:19;;;;;;;0.50;0.50;;;;;;;;;;5032892;28;20038;-80
2023/01/09 12:54:49;;;;;;;1.08;0.63;;;;;;;;;;5033212;28;20042;-79
2023/01/09 12:57:23;;;;;;;0.80;0.80;;;;;;;;;;5036122;28;20045;-80
2023/01/09 12:59:53;;;;;;;2.47;0.80;;;;;;;;;;5032538;28;20049;-81
2023/01/09 13:02:40;;;;;;;0.80;0.80;;;;;;;;;;5036780;28;20103;-80
2023/01/09 13:05:16;;;;;;;1.05;1.00;;;;;;;;;;5042018;28;20057;-80
2023/01/09 13:07:49;;;;;;;2.22;1.00;;;;;;;;;;5042826;28;20132;-80
2023/01/09 13:10:29;;;;;;;1.30;1.13;;;;;;;;;;5027908;28;20063;-80
2023/01/09 13:12:58;;;;;;;4.10;1.58;;;;;;;;;;5026471;28;20361;-80
2023/01/09 13:15:28;;;;;;;1.50;1.40;;;;;;;;;;5028097;28;20477;-80
2023/01/09 13:17:59;;;;;;;8.35;7.65;;;;;;;;;;5027623;28;20066;-80
2023/01/09 13:20:47;;;;;;;2.97;0.93;;;;;;;;;;5027732;28;20053;-80
2023/01/09 13:23:22;;;;;;;2.72;1.17;;;;;;;;;;5026626;28;20427;-80
2023/01/09 13:25:52;;;;;;;2.03;1.48;;;;;;;;;;5027274;28;20053;-80
2023/01/09 13:28:52;;;;;;;2.10;1.35;;;;;;;;;;5029046;28;20151;-79
2023/01/09 13:31:23;;;;;;;1.23;1.08;;;;;;;;;;5005561;28;20053;-79
2023/01/09 13:33:57;;;;;;;2.90;1.80;;;;;;;;;;5025902;28;20045;-79
2023/01/09 13:36:26;;;;;;;5.13;1.55;;;;;;;;;;5040983;28;20053;-79
2023/01/09 13:38:57;;;;;;;1.67;1.35;;;;;;;;;;5026550;28;20474;-79
2023/01/09 13:44:18;;;;;;;7.50;3.30;;;;;;;;;;5025016;28;20094;-79
2023/01/09 13:46:46;;;;;;;8.90;3.28;;;;;;;;;;5029617;28;20073;-80
2023/01/09 13:49:50;;;;;;;8.50;3.75;;;;;;;;;;5033169;28;20108;-80
2023/01/09 13:52:29;;;;;;;6.63;2.92;;;;;;;;;;4988416;28;20121;-80
2023/01/09 13:54:57;;;;;;;10.02;3.88;;;;;;;;;;5025946;28;20797;-80
2023/01/09 13:57:25;;;;;;;10.90;4.28;;;;;;;;;;5026750;28;20419;-80
2023/01/09 13:59:56;;;;;;;6.75;3.13;;;;;;;;;;5027071;28;20054;-80
2023/01/09 14:02:33;;;;;;;7.28;2.33;;;;;;;;;;5024277;28;20057;-80
2023/01/09 14:05:01;;;;;;;3.75;1.67;;;;;;;;;;5026963;28;20315;-81
2023/01/09 14:07:33;;;;;;;3.80;1.60;;;;;;;;;;5025766;28;20059;-80
2023/01/09 14:10:03;;;;;;;2.95;1.70;;;;;;;;;;5026450;28;20518;-80
2023/01/09 14:12:32;;;;;;;1.80;1.30;;;;;;;;;;5024671;28;20080;-80
2023/01/09 14:15:02;;;;;;;3.45;1.73;;;;;;;;;;5036343;28;20052;-79
2023/01/09 14:17:37;;;;;;;5.80;1.95;;;;;;;;;;5023596;28;20667;-79
2023/01/09 14:20:06;;;;;;;4.22;2.20;;;;;;;;;;5026188;28;20050;-80
2023/01/09 14:22:35;;;;;;;3.95;1.83;;;;;;;;;;5022863;28;20508;-79
2023/01/09 14:25:24;;;;;;;5.57;3.17;;;;;;;;;;5026055;28;20099;-80
2023/01/09 14:27:54;;;;;;;5.05;2.65;;;;;;;;;;5027414;28;20288;-80
2023/01/09 14:31:00;;;;;;;4.28;2.25;;;;;;;;;;5030199;28;20052;-80
2023/01/09 14:33:29;;;;;;;3.60;2.25;;;;;;;;;;4990873;28;20058;-80
2023/01/09 14:36:12;;;;;;;9.23;4.00;;;;;;;;;;4983420;28;20062;-80
2023/01/09 14:38:42;;;;;;;7.03;3.63;;;;;;;;;;5008382;28;20685;-80
2023/01/09 14:41:56;;;;;;;10.15;5.03;;;;;;;;;;5025548;28;20109;-80
2023/01/09 14:44:18;;;;;;;8.82;4.20;;;;;;;;;;5025456;28;20057;-80
2023/01/09 14:46:45;;;;;;;4.43;2.08;;;;;;;;;;5027330;28;20045;-80
2023/01/09 14:49:22;;;;;;;4.53;2.88;;;;;;;;;;5029210;28;20423;-80
2023/01/09 14:51:50;;;;;;;8.63;4.07;;;;;;;;;;5045450;28;20072;-80
2023/01/09 14:54:24;;;;;;;3.38;2.10;;;;;;;;;;5031553;28;20053;-80
2023/01/09 14:56:52;;;;;;;6.88;1.80;;;;;;;;;;5027390;28;20046;-80
2023/01/09 14:59:20;;;;;;;3.70;2.00;;;;;;;;;;5024488;28;20058;-80
2023/01/09 15:01:50;;;;;;;2.83;1.80;;;;;;;;;;5025160;28;20099;-80
2023/01/09 15:04:26;;;;;;;1.77;1.55;;;;;;;;;;5024546;28;20053;-79